Terminal Aerodrome Forecast
Issued by NWS Cleveland, OH

Home | Current Version | Previous Version | Graphics & Text | Print | Product List | Glossary On
Versions: 1 2 3 4 5 6 7 8 9 10 11 12 13 14 15 16 17 18 19 20 21
000
FTUS41 KCLE 101725
TAFMFD
TAF
KMFD 101725Z 1018/1118 23015G25KT P6SM SCT025 OVC080
     FM110200 24010KT P6SM SCT015 OVC025
      TEMPO 1102/1105 SCT025 OVC035
     FM110500 27008KT P6SM BKN015 OVC025
     FM111200 25004KT P6SM BKN015 OVC025
     FM111400 24005KT P6SM BKN035=

USA.gov is the U.S. government's official web portal to all federal, state and local government web resources and services.